createdAt,value
2023-01-07T05:33:29.393Z,8.90
2023-01-07T05:35:55.913Z,8.90
2023-01-07T05:38:22.495Z,8.90
2023-01-07T05:40:49.908Z,9.00
2023-01-07T05:43:16.794Z,8.90
2023-01-07T05:45:45.592Z,9.00
2023-01-07T05:48:12.885Z,9.00
2023-01-07T05:50:39.526Z,9.00
2023-01-07T05:53:06.038Z,9.00
2023-01-07T05:55:32.665Z,9.10
2023-01-07T05:57:59.181Z,9.10
2023-01-07T06:00:25.734Z,9.10
2023-01-07T06:02:52.240Z,9.10
2023-01-07T06:05:18.998Z,9.10
2023-01-07T06:07:46.027Z,9.10
2023-01-07T06:10:12.575Z,9.20
2023-01-07T06:12:39.053Z,9.20
2023-01-07T06:15:09.377Z,9.20
2023-01-07T06:17:35.895Z,9.20
2023-01-07T06:20:02.437Z,9.20
2023-01-07T06:22:28.990Z,9.20
2023-01-07T06:24:55.555Z,9.20
2023-01-07T06:27:22.080Z,9.30
2023-01-07T06:29:48.591Z,9.20
2023-01-07T06:32:15.094Z,9.30
2023-01-07T06:34:41.582Z,9.30
2023-01-07T06:37:08.089Z,9.30
2023-01-07T06:39:34.660Z,9.30
2023-01-07T06:42:01.160Z,9.30
2023-01-07T06:44:27.737Z,9.30
2023-01-07T06:46:54.448Z,9.30
2023-01-07T06:49:20.965Z,9.30
2023-01-07T06:51:47.798Z,9.30
2023-01-07T06:54:14.362Z,9.30
2023-01-07T06:56:40.899Z,9.30
2023-01-07T06:59:07.405Z,9.30
2023-01-07T07:01:34.110Z,9.40
2023-01-07T07:04:00.697Z,9.40
2023-01-07T07:06:27.196Z,9.40
2023-01-07T07:08:53.752Z,9.40
2023-01-07T07:11:20.287Z,9.40
2023-01-07T07:13:46.831Z,9.40
2023-01-07T07:16:13.469Z,9.40
2023-01-07T07:18:39.998Z,9.40
2023-01-07T07:21:06.477Z,9.40
2023-01-07T07:23:33.017Z,9.40
2023-01-07T07:25:59.514Z,9.40
2023-01-07T07:28:26.237Z,9.40
2023-01-07T07:30:52.796Z,9.40
2023-01-07T07:33:19.779Z,9.40
2023-01-07T07:35:46.951Z,9.40
2023-01-07T07:38:13.556Z,9.40
2023-01-07T07:40:40.200Z,9.40
2023-01-07T07:43:11.526Z,9.40
2023-01-07T07:45:39.980Z,9.40
2023-01-07T07:48:07.481Z,9.40
2023-01-07T07:50:34.432Z,9.40
2023-01-07T07:53:00.971Z,9.40
2023-01-07T07:55:27.815Z,9.40
2023-01-07T07:57:55.344Z,9.40
2023-01-07T08:00:22.267Z,9.40
2023-01-07T08:02:48.815Z,9.40
2023-01-07T08:05:15.427Z,9.40
2023-01-07T08:07:42.513Z,9.40
2023-01-07T08:10:09.451Z,9.40
2023-01-07T08:12:39.469Z,9.50
2023-01-07T08:15:07.967Z,9.50
2023-01-07T08:17:36.087Z,9.50
2023-01-07T08:20:03.867Z,9.50
2023-01-07T08:22:30.381Z,9.50
2023-01-07T08:24:56.872Z,9.50
2023-01-07T08:27:23.390Z,9.50
2023-01-07T08:29:49.937Z,9.50
2023-01-07T08:32:16.453Z,9.50
2023-01-07T08:34:42.978Z,9.50
2023-01-07T08:37:09.494Z,9.50
2023-01-07T08:39:36.061Z,9.50
2023-01-07T08:42:02.671Z,9.50
2023-01-07T08:44:29.255Z,9.50
2023-01-07T08:46:56.031Z,9.50
2023-01-07T08:49:22.885Z,9.50
2023-01-07T08:51:49.378Z,9.50
2023-01-07T08:54:15.924Z,9.50
2023-01-07T08:56:42.400Z,9.50
2023-01-07T08:59:08.958Z,9.50
2023-01-07T09:01:35.516Z,9.50
2023-01-07T09:04:02.174Z,9.50
2023-01-07T09:06:28.671Z,9.50
2023-01-07T09:08:55.189Z,9.50
2023-01-07T09:11:21.727Z,9.50
2023-01-07T09:13:48.471Z,9.50
2023-01-07T09:16:15.026Z,9.50
2023-01-07T09:18:41.592Z,9.50
2023-01-07T09:21:08.172Z,9.50
2023-01-07T09:23:34.833Z,9.50
2023-01-07T09:26:01.356Z,9.50
2023-01-07T09:28:27.869Z,9.50
2023-01-07T09:30:56.687Z,9.50
2023-01-07T09:33:23.569Z,9.50
2023-01-07T09:35:50.112Z,9.50
2023-01-07T09:38:16.590Z,9.50
2023-01-07T09:40:44.706Z,9.50
2023-01-07T09:43:20.049Z,9.50
2023-01-07T09:45:52.620Z,9.50
2023-01-07T09:48:42.446Z,9.50
2023-01-07T09:51:24.903Z,9.50
2023-01-07T09:54:00.116Z,9.50
2023-01-07T09:56:32.848Z,9.50
2023-01-07T09:59:00.670Z,9.50
2023-01-07T10:01:45.439Z,9.60
2023-01-07T10:04:30.531Z,9.60
2023-01-07T10:07:15.890Z,9.60
2023-01-07T10:09:51.156Z,9.60
2023-01-07T10:12:34.509Z,9.60
2023-01-07T10:15:28.230Z,9.60
2023-01-07T10:18:04.204Z,9.60
2023-01-07T10:20:39.780Z,9.60
2023-01-07T10:23:14.024Z,9.60
2023-01-07T10:25:47.989Z,9.60
2023-01-07T10:28:20.703Z,9.60
2023-01-07T10:30:51.776Z,9.60
2023-01-07T10:33:20.457Z,9.60
2023-01-07T10:35:57.268Z,9.60
2023-01-07T10:38:24.604Z,9.60
2023-01-07T10:40:56.885Z,9.60
2023-01-07T10:43:56.707Z,9.60
2023-01-07T10:47:01.502Z,9.60
2023-01-07T10:49:50.775Z,9.60
2023-01-07T10:52:29.043Z,9.60
2023-01-07T10:55:21.678Z,9.60
2023-01-07T10:57:48.778Z,9.60
2023-01-07T11:00:18.097Z,9.60
2023-01-07T11:02:50.136Z,9.60
2023-01-07T11:05:21.215Z,9.60
2023-01-07T11:07:56.970Z,9.60
2023-01-07T11:10:28.218Z,9.60
2023-01-07T11:13:08.482Z,9.60
2023-01-07T11:15:46.754Z,9.60
2023-01-07T11:18:29.112Z,9.60
2023-01-07T11:20:57.831Z,9.60
2023-01-07T11:23:30.863Z,9.60
2023-01-07T11:26:24.806Z,9.60
2023-01-07T11:28:57.902Z,9.60
2023-01-07T11:31:46.141Z,9.60
2023-01-07T11:34:34.507Z,9.60
2023-01-07T11:37:01.442Z,9.70
2023-01-07T11:39:32.240Z,9.70
2023-01-07T11:42:21.674Z,9.70
2023-01-07T11:44:48.243Z,9.70
2023-01-07T11:47:17.454Z,9.70
2023-01-07T11:49:45.651Z,9.70
2023-01-07T11:52:19.584Z,9.70
2023-01-07T11:54:51.805Z,9.70
2023-01-07T11:57:26.099Z,9.80
2023-01-07T12:00:13.377Z,9.70
2023-01-07T12:02:40.000Z,9.70
2023-01-07T12:05:26.904Z,9.80
2023-01-07T12:07:55.109Z,9.80
2023-01-07T12:10:39.171Z,9.80
2023-01-07T12:13:18.250Z,9.80
2023-01-07T12:15:55.577Z,9.80
2023-01-07T12:18:47.489Z,9.80
2023-01-07T12:21:22.065Z,9.80
2023-01-07T12:24:22.421Z,9.80
2023-01-07T12:26:57.304Z,9.80
2023-01-07T12:29:41.590Z,9.80
2023-01-07T12:32:45.791Z,9.80
2023-01-07T12:35:18.374Z,9.80
2023-01-07T12:37:59.892Z,9.80
2023-01-07T12:40:35.826Z,9.80
2023-01-07T12:43:25.827Z,9.80
2023-01-07T12:46:07.737Z,9.80
2023-01-07T12:48:56.397Z,9.80
2023-01-07T12:51:28.326Z,9.80
2023-01-07T12:54:14.387Z,9.80
2023-01-07T12:56:48.053Z,9.80
2023-01-07T12:59:46.098Z,9.80
2023-01-07T13:02:25.360Z,9.80
2023-01-07T13:05:03.100Z,9.80
2023-01-07T13:07:54.916Z,9.70
2023-01-07T13:10:28.020Z,9.80
2023-01-07T13:13:02.713Z,9.80
2023-01-07T13:15:34.890Z,9.70
2023-01-07T13:18:10.289Z,9.70
2023-01-07T13:20:49.103Z,9.70
2023-01-07T13:23:33.510Z,9.70
2023-01-07T13:26:05.786Z,9.70
2023-01-07T13:29:01.484Z,9.70
2023-01-07T13:32:00.456Z,9.70
2023-01-07T13:35:00.526Z,9.70
2023-01-07T13:38:00.814Z,9.70
2023-01-07T13:40:44.142Z,9.70
2023-01-07T13:43:53.616Z,9.70
2023-01-07T13:46:24.877Z,9.70
2023-01-07T13:48:53.645Z,9.70
2023-01-07T13:51:30.512Z,9.70
2023-01-07T13:53:57.754Z,9.60
2023-01-07T13:56:24.598Z,9.60
2023-01-07T13:59:00.543Z,9.60
2023-01-07T14:01:29.507Z,9.60
2023-01-07T14:04:06.531Z,9.70
2023-01-07T14:06:48.864Z,9.60
2023-01-07T14:09:20.094Z,9.60
2023-01-07T14:12:26.950Z,9.60
2023-01-07T14:15:10.963Z,9.60
2023-01-07T14:18:18.832Z,9.60
2023-01-07T14:20:49.353Z,9.60
2023-01-07T14:23:46.679Z,9.60
2023-01-07T14:26:30.098Z,9.60
2023-01-07T14:29:18.299Z,9.60
2023-01-07T14:31:45.790Z,9.60
2023-01-07T14:34:20.857Z,9.60
2023-01-07T14:37:04.752Z,9.60
2023-01-07T14:39:39.879Z,9.60
2023-01-07T14:42:26.378Z,9.60
2023-01-07T14:44:52.978Z,9.50
2023-01-07T14:47:53.407Z,9.50
2023-01-07T14:50:40.498Z,9.50
2023-01-07T14:53:29.111Z,9.50
2023-01-07T14:56:20.211Z,9.50
2023-01-07T14:59:10.409Z,9.50
2023-01-07T15:01:45.057Z,9.50
2023-01-07T15:04:55.486Z,9.50
2023-01-07T15:07:25.750Z,9.50
2023-01-07T15:10:20.155Z,9.50
2023-01-07T15:13:09.117Z,9.40
2023-01-07T15:15:58.074Z,9.40
2023-01-07T15:18:24.831Z,9.40
2023-01-07T15:21:18.851Z,9.40
2023-01-07T15:24:04.715Z,9.40
2023-01-07T15:26:48.994Z,9.40
2023-01-07T15:29:32.018Z,9.30
2023-01-07T15:32:25.583Z,9.30
2023-01-07T15:34:52.239Z,9.30
2023-01-07T15:37:19.238Z,9.20
2023-01-07T15:39:50.186Z,9.20
2023-01-07T15:42:20.678Z,9.20
2023-01-07T15:44:57.964Z,9.20
2023-01-07T15:47:41.491Z,9.20
2023-01-07T15:50:30.476Z,9.20
2023-01-07T15:53:03.951Z,9.10
2023-01-07T15:55:38.195Z,9.10
2023-01-07T15:58:11.884Z,9.10
2023-01-07T16:00:39.143Z,9.10
2023-01-07T16:03:06.191Z,9.10
2023-01-07T16:05:36.590Z,9.10
2023-01-07T16:08:03.337Z,9.10
2023-01-07T16:10:33.085Z,9.10
2023-01-07T16:13:05.283Z,9.10
2023-01-07T16:15:33.272Z,9.10
2023-01-07T16:18:09.030Z,9.10
2023-01-07T16:20:37.914Z,9.10
2023-01-07T16:23:10.501Z,9.10
2023-01-07T16:25:45.817Z,9.10
2023-01-07T16:28:22.492Z,9.10
2023-01-07T16:30:50.790Z,9.00
2023-01-07T16:33:21.969Z,9.10
2023-01-07T16:35:51.088Z,9.00
2023-01-07T16:38:19.204Z,9.00
2023-01-07T16:40:47.354Z,9.00
2023-01-07T16:43:30.990Z,9.00
2023-01-07T16:46:25.665Z,8.90
2023-01-07T16:49:11.025Z,8.90
2023-01-07T16:51:39.726Z,8.90
2023-01-07T16:54:37.278Z,8.90
2023-01-07T16:57:18.576Z,8.90
2023-01-07T16:59:53.829Z,8.90
2023-01-07T17:02:48.741Z,8.80
2023-01-07T17:05:23.595Z,8.80
2023-01-07T17:08:06.028Z,8.80
2023-01-07T17:10:35.107Z,8.80
2023-01-07T17:13:07.212Z,8.70
2023-01-07T17:15:34.338Z,8.70
2023-01-07T17:18:14.333Z,8.70
2023-01-07T17:20:44.733Z,8.70
2023-01-07T17:23:26.531Z,8.70
2023-01-07T17:26:16.650Z,8.60
2023-01-07T17:28:51.449Z,8.60
2023-01-07T17:31:18.564Z,8.60
2023-01-07T17:33:45.526Z,8.50
2023-01-07T17:36:20.388Z,8.50
2023-01-07T17:38:47.280Z,8.50
2023-01-07T17:41:38.120Z,8.50
2023-01-07T17:44:06.421Z,8.50
2023-01-07T17:46:33.095Z,8.40
2023-01-07T17:49:00.962Z,8.40
2023-01-07T17:51:28.421Z,8.40
2023-01-07T17:53:58.852Z,8.30
2023-01-07T17:56:25.608Z,8.40
2023-01-07T17:58:55.753Z,8.30
2023-01-07T18:01:23.605Z,8.30
2023-01-07T18:03:52.454Z,8.30
2023-01-07T18:06:20.760Z,8.30
2023-01-07T18:08:48.943Z,8.30
2023-01-07T18:11:45.172Z,8.20
2023-01-07T18:14:15.646Z,8.20
2023-01-07T18:16:42.976Z,8.20
2023-01-07T18:19:13.076Z,8.20
2023-01-07T18:21:39.903Z,8.10
2023-01-07T18:24:06.762Z,8.10
2023-01-07T18:29:00.550Z,8.10
2023-01-07T18:31:27.193Z,8.00
2023-01-07T18:33:53.913Z,8.00
2023-01-07T18:36:20.427Z,8.00
2023-01-07T18:38:47.220Z,8.00
2023-01-07T18:41:13.915Z,8.00
2023-01-07T18:43:40.562Z,8.00
2023-01-07T18:46:09.293Z,7.90
2023-01-07T18:48:36.979Z,7.90
2023-01-07T18:51:10.230Z,7.90
2023-01-07T18:53:37.158Z,7.90
2023-01-07T18:56:11.309Z,7.80
2023-01-07T18:58:38.990Z,7.80
2023-01-07T19:01:07.217Z,7.80
2023-01-07T19:03:34.296Z,7.80
2023-01-07T19:06:04.808Z,7.80
2023-01-07T19:08:32.126Z,7.80
2023-01-07T19:10:58.766Z,7.70
2023-01-07T19:13:25.302Z,7.70
2023-01-07T19:15:51.895Z,7.70
2023-01-07T19:18:18.646Z,7.70
2023-01-07T19:20:45.193Z,7.70
2023-01-07T19:23:11.846Z,7.60
2023-01-07T19:25:38.412Z,7.60
2023-01-07T19:28:05.170Z,7.60
2023-01-07T19:30:31.884Z,7.60
2023-01-07T19:32:59.255Z,7.60
2023-01-07T19:35:26.845Z,7.50
2023-01-07T19:37:53.367Z,7.60
2023-01-07T19:40:19.900Z,7.50
2023-01-07T19:42:47.765Z,7.50
2023-01-07T19:45:14.322Z,7.50
2023-01-07T19:47:41.706Z,7.50
2023-01-07T19:50:09.069Z,7.50
2023-01-07T19:52:35.565Z,7.40
2023-01-07T19:55:02.210Z,7.40
2023-01-07T19:57:29.453Z,7.40
2023-01-07T19:59:56.152Z,7.30
2023-01-07T20:02:23.027Z,7.40
2023-01-07T20:04:49.991Z,7.30
2023-01-07T20:07:16.662Z,7.30
2023-01-07T20:09:43.188Z,7.30
2023-01-07T20:12:09.685Z,7.30
2023-01-07T20:14:36.394Z,7.30
2023-01-07T20:17:03.116Z,7.30
2023-01-07T20:19:30.155Z,7.30
2023-01-07T20:21:56.661Z,7.30
2023-01-07T20:24:23.136Z,7.20
2023-01-07T20:26:49.658Z,7.20
2023-01-07T20:29:16.190Z,7.20
2023-01-07T20:31:44.299Z,7.20
2023-01-07T20:34:10.999Z,7.20
2023-01-07T20:36:37.537Z,7.20
2023-01-07T20:39:06.094Z,7.20
2023-01-07T20:41:34.673Z,7.20
2023-01-07T20:44:03.441Z,7.20
2023-01-07T20:46:31.221Z,7.20
2023-01-07T20:49:00.998Z,7.20
2023-01-07T20:51:27.856Z,7.10
2023-01-07T20:53:54.784Z,7.20
2023-01-07T20:56:22.777Z,7.10
2023-01-07T20:58:50.406Z,7.20
2023-01-07T21:01:20.282Z,7.20
2023-01-07T21:03:47.309Z,7.20
2023-01-07T21:06:17.434Z,7.20
2023-01-07T21:08:46.518Z,7.20
2023-01-07T21:11:15.231Z,7.20
2023-01-07T21:13:42.607Z,7.10
2023-01-07T21:16:09.615Z,7.20
2023-01-07T21:18:36.241Z,7.20
2023-01-07T21:21:12.118Z,7.20
2023-01-07T21:23:39.090Z,7.20
2023-01-07T21:26:07.002Z,7.20
2023-01-07T21:28:34.389Z,7.20
2023-01-07T21:31:08.599Z,7.20
2023-01-07T21:33:36.029Z,7.20
2023-01-07T21:36:13.111Z,7.20
2023-01-07T21:38:39.949Z,7.10
2023-01-07T21:41:12.213Z,7.20
2023-01-07T21:43:38.941Z,7.20
2023-01-07T21:46:06.843Z,7.20
2023-01-07T21:48:35.333Z,7.20
2023-01-07T21:51:07.899Z,7.20
2023-01-07T21:53:35.947Z,7.20
2023-01-07T21:56:07.673Z,7.20
2023-01-07T21:58:38.072Z,7.20
2023-01-07T22:01:06.016Z,7.20
2023-01-07T22:03:33.508Z,7.20
2023-01-07T22:06:08.777Z,7.20
2023-01-07T22:08:35.689Z,7.20
2023-01-07T22:11:02.395Z,7.20
2023-01-07T22:13:29.101Z,7.20
2023-01-07T22:15:55.939Z,7.20
2023-01-07T22:18:22.655Z,7.20
2023-01-07T22:20:54.403Z,7.20
2023-01-07T22:23:21.204Z,7.20
2023-01-07T22:25:47.719Z,7.20
2023-01-07T22:28:17.371Z,7.20
2023-01-07T22:30:51.132Z,7.20
2023-01-07T22:33:17.771Z,7.30
2023-01-07T22:35:45.213Z,7.30
2023-01-07T22:38:14.159Z,7.30
2023-01-07T22:40:41.189Z,7.20
2023-01-07T22:43:11.841Z,7.30
2023-01-07T22:45:52.823Z,7.20
2023-01-07T22:48:23.829Z,7.30
2023-01-07T22:50:53.265Z,7.30
2023-01-07T22:53:19.839Z,7.30
2023-01-07T22:55:48.770Z,7.30
2023-01-07T22:58:17.426Z,7.30
2023-01-07T23:00:53.316Z,7.30
2023-01-07T23:03:21.828Z,7.30
2023-01-07T23:05:49.267Z,7.30
2023-01-07T23:08:15.785Z,7.30
2023-01-07T23:10:45.223Z,7.30
2023-01-07T23:13:12.029Z,7.30
2023-01-07T23:15:38.964Z,7.30
2023-01-07T23:18:08.128Z,7.30
2023-01-07T23:20:38.195Z,7.30
2023-01-07T23:23:05.540Z,7.40
2023-01-07T23:25:32.568Z,7.30
2023-01-07T23:27:59.133Z,7.40
2023-01-07T23:30:25.692Z,7.30
2023-01-07T23:32:52.220Z,7.40
2023-01-07T23:35:18.749Z,7.40
2023-01-07T23:37:45.402Z,7.40
2023-01-07T23:40:12.611Z,7.40
2023-01-07T23:42:39.169Z,7.40
2023-01-07T23:45:07.120Z,7.40
2023-01-07T23:47:34.269Z,7.40
2023-01-07T23:50:00.791Z,7.40
2023-01-07T23:52:27.488Z,7.50
2023-01-07T23:54:54.007Z,7.40
2023-01-07T23:57:20.639Z,7.40
2023-01-07T23:59:47.141Z,7.50
